sensor_id;sensor_type;location;lat;lon;timestamp;pressure;altitude;pressure_sealevel;temperature;humidity
60820;BME280;46641;48.904;9.126;2023-06-04T00:02:46;98568.78;;;24.57;41.20
60820;BME280;46641;48.904;9.126;2023-06-04T00:07:37;98565.75;;;24.54;40.94
60820;BME280;46641;48.904;9.126;2023-06-04T00:12:27;98562.97;;;24.48;41.10
60820;BME280;46641;48.904;9.126;2023-06-04T00:17:17;98571.22;;;24.47;41.21
60820;BME280;46641;48.904;9.126;2023-06-04T00:22:08;98566.84;;;24.41;41.01
60820;BME280;46641;48.904;9.126;2023-06-04T00:26:58;98572.03;;;24.36;41.26
60820;BME280;46641;48.904;9.126;2023-06-04T00:31:49;98561.47;;;24.29;41.40
60820;BME280;46641;48.904;9.126;2023-06-04T00:36:39;98568.34;;;24.25;41.34
60820;BME280;46641;48.904;9.126;2023-06-04T00:41:30;98571.69;;;24.20;41.30
60820;BME280;46641;48.904;9.126;2023-06-04T00:46:24;98574.28;;;24.15;41.51
60820;BME280;46641;48.904;9.126;2023-06-04T00:51:15;98577.63;;;24.11;41.42
60820;BME280;46641;48.904;9.126;2023-06-04T00:56:06;98583.69;;;24.06;41.77
60820;BME280;46641;48.904;9.126;2023-06-04T01:00:57;98591.38;;;24.02;41.85
60820;BME280;46641;48.904;9.126;2023-06-04T01:05:57;98587.75;;;23.97;41.85
60820;BME280;46641;48.904;9.126;2023-06-04T01:10:54;98587.63;;;23.92;41.74
60820;BME280;46641;48.904;9.126;2023-06-04T01:15:45;98590.19;;;23.87;41.92
60820;BME280;46641;48.904;9.126;2023-06-04T01:20:44;98584.72;;;23.82;41.67
60820;BME280;46641;48.904;9.126;2023-06-04T01:25:38;98588.91;;;23.77;41.97
60820;BME280;46641;48.904;9.126;2023-06-04T01:30:35;98584.81;;;23.75;41.54
60820;BME280;46641;48.904;9.126;2023-06-04T01:35:28;98584.94;;;23.68;42.15
60820;BME280;46641;48.904;9.126;2023-06-04T01:40:18;98581.88;;;23.65;42.09
60820;BME280;46641;48.904;9.126;2023-06-04T01:45:09;98586.28;;;23.59;42.30
60820;BME280;46641;48.904;9.126;2023-06-04T01:50:00;98587.22;;;23.53;42.46
60820;BME280;46641;48.904;9.126;2023-06-04T01:54:50;98587.69;;;23.50;42.47
60820;BME280;46641;48.904;9.126;2023-06-04T01:59:42;98585.69;;;23.45;42.21
60820;BME280;46641;48.904;9.126;2023-06-04T02:04:32;98590.66;;;23.42;42.45
60820;BME280;46641;48.904;9.126;2023-06-04T02:09:26;98588.69;;;23.37;42.11
60820;BME280;46641;48.904;9.126;2023-06-04T02:14:16;98585.06;;;23.31;42.41
60820;BME280;46641;48.904;9.126;2023-06-04T02:19:06;98590.28;;;23.26;42.49
60820;BME280;46641;48.904;9.126;2023-06-04T02:23:57;98591.78;;;23.22;42.17
60820;BME280;46641;48.904;9.126;2023-06-04T02:28:48;98592.69;;;23.16;42.56
60820;BME280;46641;48.904;9.126;2023-06-04T02:33:38;98592.56;;;23.11;42.33
60820;BME280;46641;48.904;9.126;2023-06-04T02:38:28;98604.72;;;23.07;42.58
60820;BME280;46641;48.904;9.126;2023-06-04T02:43:18;98597.38;;;23.02;42.86
60820;BME280;46641;48.904;9.126;2023-06-04T02:48:09;98598.28;;;22.96;42.53
60820;BME280;46641;48.904;9.126;2023-06-04T02:52:59;98596.88;;;22.94;42.74
60820;BME280;46641;48.904;9.126;2023-06-04T02:57:50;98595.06;;;22.87;42.60
60820;BME280;46641;48.904;9.126;2023-06-04T03:02:43;98594.34;;;22.80;42.65
60820;BME280;46641;48.904;9.126;2023-06-04T03:07:34;98597.69;;;22.76;43.11
60820;BME280;46641;48.904;9.126;2023-06-04T03:12:24;98606.34;;;22.71;42.75
60820;BME280;46641;48.904;9.126;2023-06-04T03:17:15;98605.19;;;22.67;42.62
60820;BME280;46641;48.904;9.126;2023-06-04T03:22:06;98613.88;;;22.62;42.91
60820;BME280;46641;48.904;9.126;2023-06-04T03:26:57;98614.50;;;22.58;43.12
60820;BME280;46641;48.904;9.126;2023-06-04T03:31:47;98613.94;;;22.56;42.96
60820;BME280;46641;48.904;9.126;2023-06-04T03:36:37;98623.19;;;22.53;43.07
60820;BME280;46641;48.904;9.126;2023-06-04T03:41:28;98622.81;;;22.50;43.16
60820;BME280;46641;48.904;9.126;2023-06-04T03:46:18;98623.84;;;22.49;43.09
60820;BME280;46641;48.904;9.126;2023-06-04T03:51:08;98630.66;;;22.45;43.38
60820;BME280;46641;48.904;9.126;2023-06-04T03:55:58;98625.19;;;22.39;43.02
60820;BME280;46641;48.904;9.126;2023-06-04T04:00:49;98626.88;;;22.34;43.13
60820;BME280;46641;48.904;9.126;2023-06-04T04:05:39;98628.56;;;22.28;43.09
60820;BME280;46641;48.904;9.126;2023-06-04T04:10:30;98632.13;;;22.22;43.29
60820;BME280;46641;48.904;9.126;2023-06-04T04:15:20;98637.06;;;22.19;43.41
60820;BME280;46641;48.904;9.126;2023-06-04T04:20:11;98635.66;;;22.16;43.57
60820;BME280;46641;48.904;9.126;2023-06-04T04:25:01;98650.00;;;22.15;43.36
60820;BME280;46641;48.904;9.126;2023-06-04T04:29:51;98651.25;;;22.12;43.19
60820;BME280;46641;48.904;9.126;2023-06-04T04:34:51;98656.81;;;22.11;43.55
60820;BME280;46641;48.904;9.126;2023-06-04T04:39:44;98655.63;;;22.07;43.39
60820;BME280;46641;48.904;9.126;2023-06-04T04:44:35;98660.53;;;22.03;43.60
60820;BME280;46641;48.904;9.126;2023-06-04T04:49:25;98665.28;;;22.01;43.61
60820;BME280;46641;48.904;9.126;2023-06-04T04:54:15;98663.69;;;22.00;43.53
60820;BME280;46641;48.904;9.126;2023-06-04T04:59:06;98661.66;;;21.96;43.59
60820;BME280;46641;48.904;9.126;2023-06-04T05:03:56;98663.25;;;21.97;43.65
60820;BME280;46641;48.904;9.126;2023-06-04T05:08:47;98656.31;;;21.96;43.59
60820;BME280;46641;48.904;9.126;2023-06-04T05:13:37;98667.63;;;21.91;43.57
60820;BME280;46641;48.904;9.126;2023-06-04T05:18:28;98673.97;;;21.90;43.54
60820;BME280;46641;48.904;9.126;2023-06-04T05:23:21;98677.31;;;21.85;43.62
60820;BME280;46641;48.904;9.126;2023-06-04T05:28:11;98684.69;;;21.83;43.77
60820;BME280;46641;48.904;9.126;2023-06-04T05:33:02;98691.06;;;21.82;43.64
60820;BME280;46641;48.904;9.126;2023-06-04T05:37:53;98696.63;;;21.81;43.67
60820;BME280;46641;48.904;9.126;2023-06-04T05:42:43;98702.16;;;21.79;43.82
60820;BME280;46641;48.904;9.126;2023-06-04T05:47:34;98697.63;;;21.80;43.71
60820;BME280;46641;48.904;9.126;2023-06-04T05:52:24;98704.19;;;21.77;43.71
60820;BME280;46641;48.904;9.126;2023-06-04T05:57:14;98699.91;;;21.76;43.60
60820;BME280;46641;48.904;9.126;2023-06-04T06:02:05;98713.03;;;21.78;43.69
60820;BME280;46641;48.904;9.126;2023-06-04T06:06:56;98709.75;;;21.76;43.60
60820;BME280;46641;48.904;9.126;2023-06-04T06:11:46;98708.94;;;21.75;43.66
60820;BME280;46641;48.904;9.126;2023-06-04T06:16:37;98709.38;;;21.72;43.72
60820;BME280;46641;48.904;9.126;2023-06-04T06:21:27;98716.75;;;21.70;43.72
60820;BME280;46641;48.904;9.126;2023-06-04T06:26:17;98710.59;;;21.69;43.92
60820;BME280;46641;48.904;9.126;2023-06-04T06:31:08;98722.06;;;21.70;43.60
60820;BME280;46641;48.904;9.126;2023-06-04T06:35:58;98716.31;;;21.73;43.80
60820;BME280;46641;48.904;9.126;2023-06-04T06:40:51;98723.28;;;21.74;43.88
60820;BME280;46641;48.904;9.126;2023-06-04T06:45:41;98722.47;;;21.74;43.81
60820;BME280;46641;48.904;9.126;2023-06-04T06:50:31;98734.78;;;21.75;43.70
60820;BME280;46641;48.904;9.126;2023-06-04T06:55:23;98739.69;;;21.78;43.79
60820;BME280;46641;48.904;9.126;2023-06-04T07:00:14;98736.34;;;21.82;43.55
60820;BME280;46641;48.904;9.126;2023-06-04T07:05:04;98732.22;;;21.86;43.81
60820;BME280;46641;48.904;9.126;2023-06-04T07:09:54;98731.78;;;21.89;43.78
60820;BME280;46641;48.904;9.126;2023-06-04T07:14:45;98741.84;;;21.94;43.57
60820;BME280;46641;48.904;9.126;2023-06-04T07:19:35;98736.06;;;21.97;43.71
60820;BME280;46641;48.904;9.126;2023-06-04T07:24:25;98738.31;;;22.00;43.29
60820;BME280;46641;48.904;9.126;2023-06-04T07:29:16;98734.59;;;22.01;43.52
60820;BME280;46641;48.904;9.126;2023-06-04T07:34:06;98737.66;;;22.05;43.34
60820;BME280;46641;48.904;9.126;2023-06-04T07:38:56;98728.41;;;22.07;43.42
60820;BME280;46641;48.904;9.126;2023-06-04T07:43:47;98723.66;;;22.09;43.20
60820;BME280;46641;48.904;9.126;2023-06-04T07:48:37;98721.38;;;22.13;43.41
60820;BME280;46641;48.904;9.126;2023-06-04T07:53:27;98720.16;;;22.15;43.25
60820;BME280;46641;48.904;9.126;2023-06-04T07:58:18;98721.16;;;22.21;42.94
60820;BME280;46641;48.904;9.126;2023-06-04T08:03:08;98720.09;;;22.22;43.02
60820;BME280;46641;48.904;9.126;2023-06-04T08:07:58;98716.00;;;22.26;42.73
60820;BME280;46641;48.904;9.126;2023-06-04T08:12:49;98715.53;;;22.29;43.04
60820;BME280;46641;48.904;9.126;2023-06-04T08:17:39;98712.59;;;22.37;43.25
60820;BME280;46641;48.904;9.126;2023-06-04T08:22:29;98716.25;;;22.43;43.04
60820;BME280;46641;48.904;9.126;2023-06-04T08:27:20;98714.53;;;22.49;42.78
60820;BME280;46641;48.904;9.126;2023-06-04T08:32:10;98711.22;;;22.53;43.18
60820;BME280;46641;48.904;9.126;2023-06-04T08:37:00;98718.00;;;22.56;42.92
60820;BME280;46641;48.904;9.126;2023-06-04T08:41:54;98722.88;;;22.59;43.22
60820;BME280;46641;48.904;9.126;2023-06-04T08:46:51;98720.78;;;22.61;43.27
60820;BME280;46641;48.904;9.126;2023-06-04T08:51:42;98723.03;;;22.64;42.96
60820;BME280;46641;48.904;9.126;2023-06-04T08:56:35;98713.09;;;22.71;43.06
60820;BME280;46641;48.904;9.126;2023-06-04T09:01:26;98713.88;;;22.78;42.90
60820;BME280;46641;48.904;9.126;2023-06-04T09:06:17;98708.00;;;22.88;42.97
60820;BME280;46641;48.904;9.126;2023-06-04T09:11:10;98714.69;;;22.97;42.66
60820;BME280;46641;48.904;9.126;2023-06-04T09:16:02;98710.50;;;23.08;42.71
60820;BME280;46641;48.904;9.126;2023-06-04T09:21:03;98717.16;;;23.17;42.37
60820;BME280;46641;48.904;9.126;2023-06-04T09:25:55;98708.84;;;23.25;43.23
60820;BME280;46641;48.904;9.126;2023-06-04T09:30:52;98711.34;;;23.39;43.33
60820;BME280;46641;48.904;9.126;2023-06-04T09:35:53;98710.59;;;23.50;43.33
60820;BME280;46641;48.904;9.126;2023-06-04T09:40:43;98704.25;;;23.63;43.43
60820;BME280;46641;48.904;9.126;2023-06-04T09:45:34;98708.59;;;23.75;43.91
60820;BME280;46641;48.904;9.126;2023-06-04T09:50:26;98699.34;;;23.90;43.67
60820;BME280;46641;48.904;9.126;2023-06-04T09:55:18;98690.88;;;24.05;44.09
60820;BME280;46641;48.904;9.126;2023-06-04T10:00:10;98713.47;;;24.20;44.20
60820;BME280;46641;48.904;9.126;2023-06-04T10:05:01;98690.34;;;24.38;44.41
60820;BME280;46641;48.904;9.126;2023-06-04T10:09:53;98695.59;;;24.56;44.38
60820;BME280;46641;48.904;9.126;2023-06-04T10:14:49;98706.97;;;24.75;44.60
60820;BME280;46641;48.904;9.126;2023-06-04T10:19:43;98704.97;;;24.94;44.18
60820;BME280;46641;48.904;9.126;2023-06-04T10:24:33;98703.19;;;25.11;44.57
60820;BME280;46641;48.904;9.126;2023-06-04T10:29:25;98701.78;;;25.32;44.37
60820;BME280;46641;48.904;9.126;2023-06-04T10:34:16;98691.09;;;25.49;44.48
60820;BME280;46641;48.904;9.126;2023-06-04T10:39:06;98685.28;;;25.69;44.23
60820;BME280;46641;48.904;9.126;2023-06-04T10:44:01;98682.91;;;25.84;44.18
60820;BME280;46641;48.904;9.126;2023-06-04T10:48:53;98691.19;;;26.00;44.21
60820;BME280;46641;48.904;9.126;2023-06-04T10:53:43;98677.72;;;26.11;44.29
60820;BME280;46641;48.904;9.126;2023-06-04T10:58:34;98680.66;;;26.27;44.22
60820;BME280;46641;48.904;9.126;2023-06-04T11:03:34;98678.44;;;26.41;44.08
60820;BME280;46641;48.904;9.126;2023-06-04T11:08:29;98675.69;;;26.52;44.20
60820;BME280;46641;48.904;9.126;2023-06-04T11:13:24;98680.44;;;26.67;44.15
60820;BME280;46641;48.904;9.126;2023-06-04T11:18:21;98673.41;;;26.83;44.14
60820;BME280;46641;48.904;9.126;2023-06-04T11:23:13;98676.47;;;26.92;44.11
60820;BME280;46641;48.904;9.126;2023-06-04T11:28:04;98668.25;;;27.03;43.86
60820;BME280;46641;48.904;9.126;2023-06-04T11:33:05;98662.53;;;27.17;43.87
60820;BME280;46641;48.904;9.126;2023-06-04T11:37:56;98662.16;;;27.30;44.29
60820;BME280;46641;48.904;9.126;2023-06-04T11:42:47;98661.78;;;27.43;44.30
60820;BME280;46641;48.904;9.126;2023-06-04T11:47:38;98659.22;;;27.59;44.13
60820;BME280;46641;48.904;9.126;2023-06-04T11:52:28;98651.78;;;27.71;43.88
60820;BME280;46641;48.904;9.126;2023-06-04T11:57:19;98657.06;;;27.83;43.57
60820;BME280;46641;48.904;9.126;2023-06-04T12:02:10;98655.75;;;27.90;43.59
60820;BME280;46641;48.904;9.126;2023-06-04T12:07:02;98655.03;;;28.00;43.48
60820;BME280;46641;48.904;9.126;2023-06-04T12:12:01;98646.22;;;28.10;43.49
60820;BME280;46641;48.904;9.126;2023-06-04T12:22:06;98631.78;;;28.21;42.83
60820;BME280;46641;48.904;9.126;2023-06-04T12:27:08;98632.31;;;28.23;42.96
60820;BME280;46641;48.904;9.126;2023-06-04T12:32:03;98628.25;;;28.20;43.31
60820;BME280;46641;48.904;9.126;2023-06-04T12:37:03;98645.25;;;28.26;42.65
60820;BME280;46641;48.904;9.126;2023-06-04T12:41:56;98641.81;;;28.31;42.33
60820;BME280;46641;48.904;9.126;2023-06-04T12:46:46;98649.09;;;28.35;41.76
60820;BME280;46641;48.904;9.126;2023-06-04T12:51:36;98645.38;;;28.41;42.22
60820;BME280;46641;48.904;9.126;2023-06-04T12:56:28;98639.19;;;28.41;42.29
60820;BME280;46641;48.904;9.126;2023-06-04T13:01:18;98635.69;;;28.40;42.00
60820;BME280;46641;48.904;9.126;2023-06-04T13:06:09;98637.81;;;28.38;41.40
60820;BME280;46641;48.904;9.126;2023-06-04T13:10:59;98625.66;;;28.36;41.82
60820;BME280;46641;48.904;9.126;2023-06-04T13:15:50;98626.47;;;28.36;41.37
60820;BME280;46641;48.904;9.126;2023-06-04T13:20:41;98629.16;;;28.36;41.45
60820;BME280;46641;48.904;9.126;2023-06-04T13:25:31;98635.09;;;28.38;41.26
60820;BME280;46641;48.904;9.126;2023-06-04T13:30:24;98625.97;;;28.39;41.26
60820;BME280;46641;48.904;9.126;2023-06-04T13:35:15;98631.66;;;28.43;40.91
60820;BME280;46641;48.904;9.126;2023-06-04T13:40:05;98635.69;;;28.40;41.53
60820;BME280;46641;48.904;9.126;2023-06-04T13:44:56;98634.63;;;28.41;40.92
60820;BME280;46641;48.904;9.126;2023-06-04T13:49:46;98635.16;;;28.43;40.50
60820;BME280;46641;48.904;9.126;2023-06-04T13:54:36;98624.13;;;28.45;41.36
60820;BME280;46641;48.904;9.126;2023-06-04T13:59:26;98626.56;;;28.47;41.31
60820;BME280;46641;48.904;9.126;2023-06-04T14:04:17;98619.03;;;28.49;41.18
60820;BME280;46641;48.904;9.126;2023-06-04T14:09:07;98629.00;;;28.48;40.04
60820;BME280;46641;48.904;9.126;2023-06-04T14:13:59;98621.16;;;28.47;40.84
60820;BME280;46641;48.904;9.126;2023-06-04T14:18:49;98615.78;;;28.47;41.00
60820;BME280;46641;48.904;9.126;2023-06-04T14:23:39;98615.78;;;28.47;40.75
60820;BME280;46641;48.904;9.126;2023-06-04T14:28:30;98615.53;;;28.48;40.86
60820;BME280;46641;48.904;9.126;2023-06-04T14:33:20;98609.59;;;28.46;40.48
60820;BME280;46641;48.904;9.126;2023-06-04T14:38:10;98605.28;;;28.45;40.86
60820;BME280;46641;48.904;9.126;2023-06-04T14:43:01;98609.88;;;28.45;41.00
60820;BME280;46641;48.904;9.126;2023-06-04T14:47:51;98599.09;;;28.45;40.48
60820;BME280;46641;48.904;9.126;2023-06-04T14:52:42;98596.66;;;28.43;40.62
60820;BME280;46641;48.904;9.126;2023-06-04T14:57:32;98601.22;;;28.42;40.58
60820;BME280;46641;48.904;9.126;2023-06-04T15:02:22;98587.75;;;28.42;40.91
60820;BME280;46641;48.904;9.126;2023-06-04T15:07:12;98583.19;;;28.43;40.81
60820;BME280;46641;48.904;9.126;2023-06-04T15:12:03;98580.25;;;28.45;40.62
60820;BME280;46641;48.904;9.126;2023-06-04T15:16:53;98587.25;;;28.46;40.35
60820;BME280;46641;48.904;9.126;2023-06-04T15:21:44;98574.06;;;28.44;40.47
60820;BME280;46641;48.904;9.126;2023-06-04T15:26:34;98574.88;;;28.45;39.83
60820;BME280;46641;48.904;9.126;2023-06-04T15:31:24;98581.84;;;28.46;39.67
60820;BME280;46641;48.904;9.126;2023-06-04T15:36:15;98585.63;;;28.45;40.13
60820;BME280;46641;48.904;9.126;2023-06-04T15:41:05;98580.25;;;28.45;39.96
60820;BME280;46641;48.904;9.126;2023-06-04T15:45:55;98570.28;;;28.45;39.63
60820;BME280;46641;48.904;9.126;2023-06-04T15:50:46;98565.69;;;28.46;40.13
60820;BME280;46641;48.904;9.126;2023-06-04T15:55:36;98564.91;;;28.45;39.49
60820;BME280;46641;48.904;9.126;2023-06-04T16:00:26;98558.72;;;28.45;39.66
60820;BME280;46641;48.904;9.126;2023-06-04T16:05:17;98565.41;;;28.42;39.31
60820;BME280;46641;48.904;9.126;2023-06-04T16:10:08;98565.69;;;28.40;39.38
60820;BME280;46641;48.904;9.126;2023-06-04T16:14:58;98555.97;;;28.39;38.88
60820;BME280;46641;48.904;9.126;2023-06-04T16:19:49;98553.28;;;28.39;39.68
60820;BME280;46641;48.904;9.126;2023-06-04T16:24:39;98550.59;;;28.39;39.55
60820;BME280;46641;48.904;9.126;2023-06-04T16:29:29;98549.75;;;28.39;38.86
60820;BME280;46641;48.904;9.126;2023-06-04T16:34:19;98548.66;;;28.35;38.79
60820;BME280;46641;48.904;9.126;2023-06-04T16:39:10;98552.69;;;28.32;37.78
60820;BME280;46641;48.904;9.126;2023-06-04T16:44:01;98544.63;;;28.32;38.43
60820;BME280;46641;48.904;9.126;2023-06-04T16:48:51;98538.41;;;28.32;38.00
60820;BME280;46641;48.904;9.126;2023-06-04T16:53:41;98537.63;;;28.31;37.81
60820;BME280;46641;48.904;9.126;2023-06-04T16:58:32;98543.53;;;28.28;37.99
60820;BME280;46641;48.904;9.126;2023-06-04T17:03:24;98542.41;;;28.24;36.91
60820;BME280;46641;48.904;9.126;2023-06-04T17:08:14;98544.00;;;28.15;36.71
60820;BME280;46641;48.904;9.126;2023-06-04T17:13:05;98541.84;;;28.17;37.98
60820;BME280;46641;48.904;9.126;2023-06-04T17:17:56;98547.22;;;28.17;36.17
60820;BME280;46641;48.904;9.126;2023-06-04T17:22:50;98548.28;;;28.16;36.45
60820;BME280;46641;48.904;9.126;2023-06-04T17:27:40;98546.13;;;28.13;36.27
60820;BME280;46641;48.904;9.126;2023-06-04T17:32:30;98544.25;;;28.13;36.96
60820;BME280;46641;48.904;9.126;2023-06-04T17:37:20;98544.50;;;28.12;36.52
60820;BME280;46641;48.904;9.126;2023-06-04T17:42:11;98550.41;;;28.09;36.69
60820;BME280;46641;48.904;9.126;2023-06-04T17:47:01;98541.53;;;28.08;36.17
60820;BME280;46641;48.904;9.126;2023-06-04T17:51:53;98559.00;;;28.06;36.06
60820;BME280;46641;48.904;9.126;2023-06-04T17:56:44;98549.00;;;28.01;35.85
60820;BME280;46641;48.904;9.126;2023-06-04T18:01:34;98544.94;;;27.93;35.63
60820;BME280;46641;48.904;9.126;2023-06-04T18:06:25;98555.69;;;27.93;36.38
60820;BME280;46641;48.904;9.126;2023-06-04T18:11:16;98556.22;;;27.90;34.99
60820;BME280;46641;48.904;9.126;2023-06-04T18:16:06;98562.69;;;27.89;36.07
60820;BME280;46641;48.904;9.126;2023-06-04T18:21:00;98568.56;;;27.86;35.53
60820;BME280;46641;48.904;9.126;2023-06-04T18:25:51;98571.22;;;27.81;34.72
60820;BME280;46641;48.904;9.126;2023-06-04T18:30:41;98573.63;;;27.78;35.57
60820;BME280;46641;48.904;9.126;2023-06-04T18:35:31;98569.53;;;27.75;34.48
60820;BME280;46641;48.904;9.126;2023-06-04T18:40:22;98573.50;;;27.67;35.09
60820;BME280;46641;48.904;9.126;2023-06-04T18:45:13;98573.22;;;27.64;33.91
60820;BME280;46641;48.904;9.126;2023-06-04T18:50:04;98571.53;;;27.58;33.93
60820;BME280;46641;48.904;9.126;2023-06-04T18:54:54;98571.81;;;27.56;35.92
60820;BME280;46641;48.904;9.126;2023-06-04T18:59:45;98570.44;;;27.54;35.11
60820;BME280;46641;48.904;9.126;2023-06-04T19:04:35;98573.06;;;27.48;35.04
60820;BME280;46641;48.904;9.126;2023-06-04T19:09:25;98568.22;;;27.45;34.62
60820;BME280;46641;48.904;9.126;2023-06-04T19:14:15;98574.38;;;27.41;35.29
60820;BME280;46641;48.904;9.126;2023-06-04T19:19:06;98575.13;;;27.36;34.84
60820;BME280;46641;48.904;9.126;2023-06-04T19:23:58;98587.22;;;27.34;34.60
60820;BME280;46641;48.904;9.126;2023-06-04T19:28:49;98590.09;;;27.27;35.01
60820;BME280;46641;48.904;9.126;2023-06-04T19:33:39;98591.91;;;27.21;34.64
60820;BME280;46641;48.904;9.126;2023-06-04T19:38:29;98594.00;;;27.14;35.48
60820;BME280;46641;48.904;9.126;2023-06-04T19:43:19;98611.09;;;27.08;34.95
60820;BME280;46641;48.904;9.126;2023-06-04T19:48:10;98613.22;;;27.06;35.50
60820;BME280;46641;48.904;9.126;2023-06-04T19:53:00;98620.75;;;27.04;35.53
60820;BME280;46641;48.904;9.126;2023-06-04T19:57:51;98628.72;;;26.99;35.26
60820;BME280;46641;48.904;9.126;2023-06-04T20:02:42;98635.91;;;26.93;36.54
60820;BME280;46641;48.904;9.126;2023-06-04T20:07:32;98640.16;;;26.89;36.76
60820;BME280;46641;48.904;9.126;2023-06-04T20:12:24;98636.38;;;26.85;35.92
60820;BME280;46641;48.904;9.126;2023-06-04T20:17:15;98630.91;;;26.80;35.49
60820;BME280;46641;48.904;9.126;2023-06-04T20:22:05;98628.72;;;26.77;36.74
60820;BME280;46641;48.904;9.126;2023-06-04T20:26:57;98630.03;;;26.74;36.97
60820;BME280;46641;48.904;9.126;2023-06-04T20:31:47;98632.41;;;26.71;37.89
60820;BME280;46641;48.904;9.126;2023-06-04T20:36:38;98635.59;;;26.68;37.91
60820;BME280;46641;48.904;9.126;2023-06-04T20:41:28;98641.72;;;26.63;38.00
60820;BME280;46641;48.904;9.126;2023-06-04T20:46:18;98635.22;;;26.59;38.05
60820;BME280;46641;48.904;9.126;2023-06-04T20:51:09;98641.34;;;26.54;38.32
60820;BME280;46641;48.904;9.126;2023-06-04T20:56:00;98643.97;;;26.49;38.24
60820;BME280;46641;48.904;9.126;2023-06-04T21:00:50;98650.03;;;26.45;38.44
60820;BME280;46641;48.904;9.126;2023-06-04T21:05:41;98651.84;;;26.39;38.40
60820;BME280;46641;48.904;9.126;2023-06-04T21:10:31;98650.69;;;26.35;38.47
60820;BME280;46641;48.904;9.126;2023-06-04T21:15:21;98653.31;;;26.30;38.25
60820;BME280;46641;48.904;9.126;2023-06-04T21:20:12;98652.16;;;26.26;38.54
60820;BME280;46641;48.904;9.126;2023-06-04T21:25:02;98666.31;;;26.21;38.80
60820;BME280;46641;48.904;9.126;2023-06-04T21:29:53;98659.03;;;26.17;38.84
60820;BME280;46641;48.904;9.126;2023-06-04T21:34:43;98662.69;;;26.10;38.61
60820;BME280;46641;48.904;9.126;2023-06-04T21:39:34;98660.72;;;26.06;38.94
60820;BME280;46641;48.904;9.126;2023-06-04T21:44:25;98657.97;;;26.01;39.12
60820;BME280;46641;48.904;9.126;2023-06-04T21:49:15;98663.00;;;25.97;38.94
60820;BME280;46641;48.904;9.126;2023-06-04T21:54:06;98672.03;;;25.91;39.13
60820;BME280;46641;48.904;9.126;2023-06-04T21:58:58;98670.31;;;25.85;39.02
60820;BME280;46641;48.904;9.126;2023-06-04T22:03:49;98661.59;;;25.78;39.12
60820;BME280;46641;48.904;9.126;2023-06-04T22:08:39;98664.16;;;25.73;39.30
60820;BME280;46641;48.904;9.126;2023-06-04T22:13:29;98657.69;;;25.69;39.05
60820;BME280;46641;48.904;9.126;2023-06-04T22:18:20;98658.63;;;25.62;39.34
60820;BME280;46641;48.904;9.126;2023-06-04T22:23:10;98664.97;;;25.56;39.38
60820;BME280;46641;48.904;9.126;2023-06-04T22:28:01;98658.69;;;25.51;39.48
60820;BME280;46641;48.904;9.126;2023-06-04T22:32:51;98655.94;;;25.46;39.56
60820;BME280;46641;48.904;9.126;2023-06-04T22:37:41;98659.31;;;25.41;39.67
60820;BME280;46641;48.904;9.126;2023-06-04T22:42:31;98650.63;;;25.34;39.74
60820;BME280;46641;48.904;9.126;2023-06-04T22:47:22;98662.88;;;25.30;39.34
60820;BME280;46641;48.904;9.126;2023-06-04T22:52:12;98660.56;;;25.22;39.80
60820;BME280;46641;48.904;9.126;2023-06-04T22:57:04;98675.75;;;25.16;39.76
60820;BME280;46641;48.904;9.126;2023-06-04T23:01:55;98661.38;;;25.10;40.04
60820;BME280;46641;48.904;9.126;2023-06-04T23:06:45;98658.59;;;25.05;39.71
60820;BME280;46641;48.904;9.126;2023-06-04T23:11:36;98664.69;;;25.01;39.78
60820;BME280;46641;48.904;9.126;2023-06-04T23:16:26;98658.41;;;24.95;39.80
60820;BME280;46641;48.904;9.126;2023-06-04T23:21:16;98653.19;;;24.88;40.02
60820;BME280;46641;48.904;9.126;2023-06-04T23:26:06;98654.72;;;24.84;40.17
60820;BME280;46641;48.904;9.126;2023-06-04T23:30:57;98655.44;;;24.80;40.20
60820;BME280;46641;48.904;9.126;2023-06-04T23:35:47;98652.84;;;24.73;40.30
60820;BME280;46641;48.904;9.126;2023-06-04T23:40:38;98656.50;;;24.67;40.25
60820;BME280;46641;48.904;9.126;2023-06-04T23:45:28;98652.91;;;24.61;40.23
60820;BME280;46641;48.904;9.126;2023-06-04T23:50:18;98657.31;;;24.56;40.11
60820;BME280;46641;48.904;9.126;2023-06-04T23:55:09;98653.69;;;24.50;40.01
60820;BME280;46641;48.904;9.126;2023-06-04T23:59:59;98644.19;;;24.42;40.45
